Base Aerea de Santos Airport Guaruja BR
ICAO: SBST
IATA: SSZ
Category: Medium
Scheduled Services: No

Elevation: 10 ft
TransAlt. 6000 ft.

Airport Communications:
SAO PAULO APP:119.8
TWR:118.3

SBST Zoom In..

If you have problems with the map follow the link
https://www.worldairports.se/pages/airport.php?
ICAO=SBST

Runways:

(A) RW 17 length 4560 ft width 141 ft
---- / hdg 169

(B) RW 35 length 4560 ft width 141 ft
---- / hdg 349

Location; SBST
Day. 25 / Time. 21.00 Zulu
* QNH: 1009
* Temperature: 26° c. 78.8°f.
* Wind from: 160° Speed 04 kn.
Dewpoint: 19° c.
Visibility: 10 km or more.
Clouds: Scattered 3000 ft.

SBST 252100Z 16004KT 9999 SCT030 26/19 Q1009


Wind From 160°
Speed 04 kn.

 
 
jpsmedia worldairports.se 2020   terms of use